Crapo, Maryland
Current Conditions -  °F | °C
As of 7:52 PM on Wednesday 17 Dec 2014 (Local Time) from KNHK Reporting Station
Few Clouds Few Clouds  
Wind Chill: 37°   Ceiling: Unl
Heat Index: 44°   Visibility: 10mi
Dew Point: 28°   Wind: 14mph
Humidity: 53%   Direction: 320°NW
Pressure: 30.02"   Gusts: NA
Location:  38.32°N, 76.13°W
Report Text: KNHK 180052Z 32012KT 10SM FEW250 07/M02 A3002 RMK AO2 SLP166 T00671022
Loading
Personal Weather Stations






























Interactive Weather Map New forecast layout! Learn more

10-Day Weather Forecast

Advertisements
Track Severe Weather on mobile